Terminal Aerodrome Forecast
Issued by NWS Wilmington, NC

Home | Current Version | Previous Version | Text Only | Print | Product List | Glossary On
Versions: 1 2 3 4 5 6 7 8 9 10 11 12 13 14 15 16 17 18
000
FTUS42 KILM 231500 AAA
TAFMYR
TAF AMD
KMYR 231513Z 2315/2412 04012G18KT 5SM -RA BR SCT010 BKN040 OVC060
     FM232300 03010KT P6SM VCSH BKN025 OVC100
     FM240600 01015G22KT P6SM SCT007 OVC015=

USA.gov is the U.S. government's official web portal to all federal, state and local government web resources and services.